Time;durP1;ratioP1;P1;durP2;ratioP2;P2;SDS_P1;SDS_P2;PMS_P1;PMS_P2;Temp;Humidity;BMP_temperature;BMP_pressure;BME280_temperature;BME280_humidity;BME280_pressure;Samples;Min_cycle;Max_cycle;Signal;HPM_P1;HPM_P2
2021/12/05 00:19:33;;;;;;;5.47;1.60;;;4.70;99.90;;;;;;5092552;28;20233;-58
2021/12/05 00:24:41;;;;;;;6.88;1.52;;;4.70;99.90;;;;;;5092173;28;20694;-58
2021/12/05 00:27:22;;;;;;;4.60;1.15;;;4.70;99.90;;;;;;5091147;28;20255;-58
2021/12/05 00:30:07;;;;;;;5.97;1.65;;;4.70;99.90;;;;;;5091862;28;20673;-58
2021/12/05 00:32:47;;;;;;;5.30;1.60;;;4.70;99.90;;;;;;5092024;28;20266;-58
2021/12/05 00:35:42;;;;;;;4.32;1.42;;;4.70;99.90;;;;;;5092084;28;20188;-58
2021/12/05 00:39:07;;;;;;;7.45;1.40;;;4.60;99.90;;;;;;5092044;28;20188;-58
2021/12/05 00:46:19;;;;;;;6.20;1.65;;;4.60;99.90;;;;;;5091890;28;20547;-58
2021/12/05 01:02:18;;;;;;;5.57;1.38;;;4.60;99.90;;;;;;5091813;28;20167;-58
2021/12/05 01:10:05;;;;;;;7.35;1.60;;;4.50;99.90;;;;;;5091663;28;20183;-58
2021/12/05 01:15:14;;;;;;;3.30;1.30;;;4.60;99.90;;;;;;5091660;28;20200;-58
2021/12/05 01:18:03;;;;;;;4.88;1.88;;;4.50;99.90;;;;;;5091448;28;20210;-58
2021/12/05 01:20:36;;;;;;;3.35;1.17;;;4.50;99.90;;;;;;5091504;28;20172;-58
2021/12/05 01:23:10;;;;;;;3.28;1.05;;;4.50;99.90;;;;;;5091492;28;20534;-58
2021/12/05 01:30:55;;;;;;;5.72;1.80;;;4.60;99.90;;;;;;5096424;28;20639;-58
2021/12/05 01:33:31;;;;;;;7.47;1.55;;;4.60;99.90;;;;;;5094459;28;20175;-59
2021/12/05 01:38:41;;;;;;;5.53;1.30;;;4.50;99.90;;;;;;5115682;28;20176;-59
2021/12/05 01:54:37;;;;;;;4.72;1.20;;;4.30;99.90;;;;;;5115170;28;20638;-59
2021/12/05 02:11:26;;;;;;;2.85;1.10;;;4.20;99.90;;;;;;5091612;28;20241;-58
2021/12/05 02:40:49;;;;;;;2.58;1.08;;;4.10;99.90;;;;;;5094315;28;20187;-57
2021/12/05 02:43:25;;;;;;;1.23;0.80;;;4.00;99.90;;;;;;5093990;28;20200;-58
2021/12/05 02:45:53;;;;;;;2.65;0.70;;;3.90;99.90;;;;;;5093940;28;20184;-58
2021/12/05 02:48:21;;;;;;;3.88;0.93;;;3.80;99.90;;;;;;5093907;28;20192;-59
2021/12/05 02:50:46;;;;;;;1.20;0.98;;;3.80;99.90;;;;;;5093984;28;20186;-58
2021/12/05 02:53:19;;;;;;;3.60;1.92;;;3.70;99.90;;;;;;5093788;28;20536;-58
2021/12/05 02:55:47;;;;;;;7.00;2.67;;;3.70;99.90;;;;;;5093654;28;20220;-58
2021/12/05 02:58:26;;;;;;;2.40;1.33;;;3.70;99.90;;;;;;5093871;28;20259;-58
2021/12/05 03:03:33;;;;;;;1.88;0.98;;;3.70;99.90;;;;;;5093527;28;20207;-58
2021/12/05 03:06:09;;;;;;;2.22;1.10;;;3.60;99.90;;;;;;5093405;28;20627;-59
2021/12/05 03:08:35;;;;;;;3.35;1.20;;;3.60;99.90;;;;;;5091721;28;20179;-59
2021/12/05 03:11:02;;;;;;;1.27;0.80;;;3.60;99.90;;;;;;5091558;28;20176;-59
2021/12/05 03:13:28;;;;;;;4.18;1.50;;;3.60;99.90;;;;;;5092152;28;20180;-59
2021/12/05 03:15:56;;;;;;;6.68;1.10;;;3.60;99.90;;;;;;5093361;28;20510;-59
2021/12/05 03:18:23;;;;;;;2.25;1.30;;;3.60;99.90;;;;;;5092056;28;20169;-59
2021/12/05 03:20:49;;;;;;;5.47;1.20;;;3.60;99.90;;;;;;5093322;28;20515;-58
2021/12/05 03:23:14;;;;;;;4.45;1.48;;;3.60;99.90;;;;;;5093249;28;20274;-59
2021/12/05 03:25:40;;;;;;;3.40;1.20;;;3.60;99.90;;;;;;5093065;28;20520;-58
2021/12/05 03:28:06;;;;;;;2.50;1.10;;;3.60;99.90;;;;;;5093185;28;20176;-58
2021/12/05 03:30:32;;;;;;;2.78;1.13;;;3.50;99.90;;;;;;5092970;28;20206;-58
2021/12/05 03:32:58;;;;;;;2.05;1.10;;;3.50;99.90;;;;;;5092906;28;20207;-59
2021/12/05 03:35:27;;;;;;;3.03;1.10;;;3.50;99.90;;;;;;5092950;28;20425;-59
2021/12/05 03:37:53;;;;;;;3.65;1.48;;;3.50;99.90;;;;;;5092947;28;20613;-58
2021/12/05 03:40:22;;;;;;;4.43;1.52;;;3.50;99.90;;;;;;5092817;28;20172;-59
2021/12/05 03:42:48;;;;;;;4.10;1.75;;;3.40;99.90;;;;;;5093047;28;20180;-58
2021/12/05 03:45:21;;;;;;;2.97;1.20;;;3.40;99.90;;;;;;5092838;28;20220;-58
2021/12/05 03:47:47;;;;;;;2.58;1.23;;;3.40;99.90;;;;;;5092739;28;20237;-58
2021/12/05 03:50:13;;;;;;;6.18;1.67;;;3.40;99.90;;;;;;5092369;28;20655;-58
2021/12/05 03:52:39;;;;;;;5.65;1.55;;;3.40;99.90;;;;;;5092438;28;20180;-59
2021/12/05 03:55:08;;;;;;;1.95;1.20;;;3.40;99.90;;;;;;5092444;28;20694;-59
2021/12/05 03:57:34;;;;;;;5.28;1.33;;;3.50;99.90;;;;;;5092547;28;20251;-58
2021/12/05 04:00:03;;;;;;;3.30;1.30;;;3.50;99.90;;;;;;5092412;28;20259;-59
2021/12/05 04:02:29;;;;;;;2.67;1.23;;;3.50;99.90;;;;;;5092335;28;20180;-59
2021/12/05 04:04:54;;;;;;;2.67;0.95;;;3.50;99.90;;;;;;5092420;28;20216;-59
2021/12/05 04:07:20;;;;;;;3.17;1.35;;;3.60;99.90;;;;;;5092278;28;20172;-59
2021/12/05 04:09:46;;;;;;;5.13;1.55;;;3.60;99.90;;;;;;5088581;28;20195;-59
2021/12/05 04:12:15;;;;;;;7.60;1.27;;;3.60;99.90;;;;;;5092267;28;20636;-59
2021/12/05 04:14:44;;;;;;;3.63;1.25;;;3.60;99.90;;;;;;5092126;28;20176;-59
2021/12/05 04:17:12;;;;;;;4.10;0.95;;;3.60;99.90;;;;;;5092219;28;20172;-59
2021/12/05 04:19:38;;;;;;;4.07;1.25;;;3.70;99.90;;;;;;5092035;28;20172;-59
2021/12/05 04:22:05;;;;;;;5.75;1.27;;;3.70;99.90;;;;;;5092239;28;20179;-59
2021/12/05 04:24:33;;;;;;;3.70;1.35;;;3.70;99.90;;;;;;5091890;28;20566;-59
2021/12/05 04:26:59;;;;;;;3.35;1.23;;;3.70;99.90;;;;;;5092026;28;20579;-59
2021/12/05 04:29:25;;;;;;;1.80;1.10;;;3.70;99.90;;;;;;5092040;28;20568;-59
2021/12/05 04:31:51;;;;;;;2.73;0.93;;;3.70;99.90;;;;;;5092098;28;20182;-59
2021/12/05 04:34:17;;;;;;;5.60;1.42;;;3.70;99.90;;;;;;5092116;28;20199;-59
2021/12/05 04:36:43;;;;;;;6.10;1.83;;;3.70;99.90;;;;;;5092072;28;20173;-59
2021/12/05 04:39:10;;;;;;;1.38;1.15;;;3.60;99.90;;;;;;5091991;28;20168;-59
2021/12/05 04:41:40;;;;;;;6.03;1.58;;;3.60;99.90;;;;;;5098187;28;20202;-59
2021/12/05 04:44:06;;;;;;;2.83;1.33;;;3.60;99.90;;;;;;5112187;28;20257;-59
2021/12/05 04:46:32;;;;;;;2.00;1.20;;;3.60;99.90;;;;;;5112250;28;20175;-59
2021/12/05 04:48:58;;;;;;;2.70;1.42;;;3.60;99.90;;;;;;5112071;28;20175;-59
2021/12/05 04:51:34;;;;;;;6.03;1.35;;;3.50;99.90;;;;;;5112135;28;20167;-59
2021/12/05 04:54:00;;;;;;;4.05;1.52;;;3.50;99.90;;;;;;5112204;28;20202;-59
2021/12/05 04:56:26;;;;;;;4.53;1.70;;;3.50;99.90;;;;;;5111949;28;20234;-59
2021/12/05 04:58:53;;;;;;;3.03;1.75;;;3.50;99.90;;;;;;5112277;28;20261;-59
2021/12/05 05:01:20;;;;;;;4.70;2.17;;;3.50;99.90;;;;;;5112748;28;20163;-59
2021/12/05 05:03:46;;;;;;;7.00;2.72;;;3.50;99.90;;;;;;5114959;28;20588;-59
2021/12/05 05:06:17;;;;;;;16.23;6.10;;;3.60;99.90;;;;;;5116295;28;20232;-59
2021/12/05 05:08:45;;;;;;;8.45;3.67;;;3.60;99.90;;;;;;5113262;28;20187;-59
2021/12/05 05:11:13;;;;;;;11.50;3.20;;;3.60;99.90;;;;;;5095692;28;20176;-59
2021/12/05 05:13:40;;;;;;;4.15;1.77;;;3.60;99.90;;;;;;5095622;28;20180;-59
2021/12/05 05:16:06;;;;;;;5.57;2.17;;;3.70;99.90;;;;;;5094481;28;20199;-59
2021/12/05 05:18:42;;;;;;;5.28;2.20;;;3.70;99.90;;;;;;5095569;28;20576;-60
2021/12/05 05:21:32;;;;;;;8.82;3.10;;;3.70;99.90;;;;;;5095761;28;20214;-59
2021/12/05 05:24:27;;;;;;;5.20;2.05;;;3.70;99.90;;;;;;5094306;28;20584;-59
2021/12/05 05:27:28;;;;;;;4.43;1.90;;;3.80;99.90;;;;;;5095562;28;20187;-59
2021/12/05 05:43:22;;;;;;;4.38;1.20;;;3.80;99.90;;;;;;5095131;28;20172;-58
2021/12/05 05:50:52;;;;;;;4.20;1.15;;;3.90;99.90;;;;;;5095186;28;20180;-58
2021/12/05 05:53:17;;;;;;;6.25;1.30;;;3.90;99.90;;;;;;5094965;28;20183;-58
2021/12/05 05:55:43;;;;;;;3.92;0.93;;;3.90;99.90;;;;;;5093908;28;20228;-58
2021/12/05 05:58:12;;;;;;;4.05;1.20;;;3.80;99.90;;;;;;5093787;28;20179;-59
2021/12/05 06:00:50;;;;;;;3.17;1.15;;;3.90;99.90;;;;;;5093510;28;20199;-59
2021/12/05 06:03:21;;;;;;;0.73;0.70;;;3.80;99.90;;;;;;5093578;28;20619;-59
2021/12/05 06:05:49;;;;;;;3.60;0.70;;;3.80;99.90;;;;;;5093689;28;20192;-59
2021/12/05 06:08:15;;;;;;;3.33;1.02;;;3.80;99.90;;;;;;5093594;28;20642;-59
2021/12/05 06:10:41;;;;;;;4.18;1.27;;;3.80;99.90;;;;;;5089598;28;20192;-59
2021/12/05 06:13:07;;;;;;;0.82;0.50;;;3.80;99.90;;;;;;5093104;28;20202;-59
2021/12/05 06:15:32;;;;;;;4.30;1.40;;;3.80;99.90;;;;;;5093329;28;20180;-59
2021/12/05 06:17:58;;;;;;;19.05;6.43;;;3.80;99.90;;;;;;5093315;28;20183;-59
2021/12/05 06:20:27;;;;;;;14.35;5.40;;;3.80;99.90;;;;;;5093300;28;20184;-59
2021/12/05 06:22:53;;;;;;;7.40;3.15;;;3.80;99.90;;;;;;5093286;28;20634;-59
2021/12/05 06:25:24;;;;;;;5.53;2.15;;;3.90;99.90;;;;;;5092714;28;20212;-60
2021/12/05 06:27:52;;;;;;;3.30;2.05;;;3.90;99.90;;;;;;5093201;28;20191;-59
2021/12/05 06:30:39;;;;;;;7.80;2.45;;;3.80;99.90;;;;;;5093064;28;20584;-59
2021/12/05 06:46:24;;;;;;;17.42;5.93;;;3.90;99.90;;;;;;5093074;28;20179;-59
2021/12/05 06:48:50;;;;;;;7.18;3.30;;;3.90;99.90;;;;;;5092937;28;20173;-59
2021/12/05 06:51:22;;;;;;;16.20;5.85;;;3.90;99.90;;;;;;5092986;28;20237;-59
2021/12/05 06:53:47;;;;;;;14.23;5.50;;;3.90;99.90;;;;;;5092733;28;20184;-59
2021/12/05 06:56:13;;;;;;;9.80;3.70;;;3.90;99.90;;;;;;5055347;28;1042442;-59
2021/12/05 06:58:39;;;;;;;18.73;4.93;;;3.90;99.90;;;;;;5093606;28;20179;-59
2021/12/05 07:01:07;;;;;;;6.78;2.92;;;3.90;99.90;;;;;;5093729;28;20173;-59
2021/12/05 07:03:34;;;;;;;7.05;3.05;;;3.90;99.90;;;;;;5093520;28;20208;-58
2021/12/05 07:08:30;;;;;;;7.55;3.03;;;4.00;99.90;;;;;;5093266;28;20164;-57
2021/12/05 07:18:43;;;;;;;3.20;2.10;;;3.90;99.90;;;;;;5093202;28;20631;-58
2021/12/05 07:26:32;;;;;;;2.20;1.30;;;4.00;99.90;;;;;;5093239;28;20624;-58
2021/12/05 07:42:41;;;;;;;4.28;2.13;;;3.90;99.90;;;;;;5101622;28;20191;-58
2021/12/05 07:45:11;;;;;;;5.57;2.15;;;3.90;99.90;;;;;;5096204;28;20567;-58
2021/12/05 07:47:41;;;;;;;1.90;1.27;;;3.90;99.90;;;;;;5091441;28;20643;-58
2021/12/05 07:50:09;;;;;;;2.45;1.17;;;3.90;99.90;;;;;;5092841;28;20184;-57
2021/12/05 07:52:40;;;;;;;2.42;1.33;;;3.80;99.90;;;;;;5092650;28;20662;-57
2021/12/05 07:55:25;;;;;;;4.70;1.95;;;3.80;99.90;;;;;;5092540;28;20713;-58
2021/12/05 07:58:06;;;;;;;3.38;1.95;;;3.70;99.90;;;;;;5092735;28;20180;-58
2021/12/05 08:00:47;;;;;;;2.58;1.90;;;3.80;99.90;;;;;;5092601;28;20186;-57
2021/12/05 08:14:31;;;;;;;2.58;1.30;;;4.10;99.90;;;;;;5072165;28;20187;-59
2021/12/05 08:16:59;;;;;;;2.67;1.77;;;4.20;99.90;;;;;;5084800;28;20635;-60
2021/12/05 08:19:25;;;;;;;2.63;1.55;;;4.30;99.90;;;;;;5092302;28;20172;-58
2021/12/05 08:21:55;;;;;;;4.10;1.70;;;4.40;99.90;;;;;;5092267;28;20240;-58
2021/12/05 08:24:24;;;;;;;3.97;1.67;;;4.50;99.90;;;;;;5092047;28;20196;-58
2021/12/05 08:26:51;;;;;;;12.80;5.65;;;4.60;99.90;;;;;;5092226;28;20247;-57
2021/12/05 08:29:22;;;;;;;10.73;4.25;;;4.70;99.90;;;;;;5091929;28;20176;-60
2021/12/05 08:39:49;;;;;;;73.68;22.50;;;5.00;99.90;;;;;;5091911;28;20519;-59
2021/12/05 09:20:16;;;;;;;3.58;1.30;;;6.90;99.90;;;;;;5091898;28;20225;-59
2021/12/05 09:28:17;;;;;;;0.93;0.90;;;7.10;99.90;;;;;;5111878;28;20179;-59
2021/12/05 09:30:45;;;;;;;2.50;0.90;;;7.10;99.90;;;;;;5111571;28;20191;-60
2021/12/05 10:06:46;;;;;;;3.30;2.20;;;6.40;99.90;;;;;;5094667;28;20229;-60
2021/12/05 10:33:46;;;;;;;6.97;3.15;;;5.30;99.90;;;;;;5094137;28;20195;-59
2021/12/05 10:36:21;;;;;;;5.30;2.63;;;5.10;99.90;;;;;;5093919;28;21004;-59
2021/12/05 10:38:52;;;;;;;5.68;2.47;;;4.90;99.90;;;;;;5094135;28;20229;-58
2021/12/05 10:44:01;;;;;;;4.20;1.85;;;4.70;99.90;;;;;;5095844;28;20270;-58
2021/12/05 10:46:29;;;;;;;5.97;2.25;;;4.60;99.90;;;;;;5102179;28;20172;-58
2021/12/05 10:49:09;;;;;;;4.07;2.28;;;4.60;99.90;;;;;;5093992;28;20180;-58
2021/12/05 10:51:43;;;;;;;3.17;2.00;;;4.50;99.90;;;;;;5075819;28;20176;-60
2021/12/05 10:54:12;;;;;;;15.52;5.10;;;4.50;99.90;;;;;;5093897;28;20207;-60
2021/12/05 10:56:51;;;;;;;17.95;7.13;;;4.60;99.90;;;;;;5093305;28;20258;-60
2021/12/05 10:59:35;;;;;;;8.73;4.78;;;4.60;99.90;;;;;;5092438;28;20180;-60
2021/12/05 11:02:05;;;;;;;6.78;3.13;;;4.70;99.90;;;;;;5092004;28;20195;-60
2021/12/05 11:04:34;;;;;;;5.32;2.50;;;4.80;99.90;;;;;;5093108;28;20687;-60
2021/12/05 11:07:02;;;;;;;3.55;1.80;;;4.90;99.90;;;;;;5093386;28;20175;-60
2021/12/05 11:09:36;;;;;;;2.10;1.52;;;5.10;99.90;;;;;;5093069;28;20187;-60
2021/12/05 11:12:14;;;;;;;4.90;2.58;;;5.20;99.90;;;;;;5093208;28;20168;-60
2021/12/05 11:14:51;;;;;;;3.33;1.80;;;5.40;99.90;;;;;;5093269;28;20199;-60
2021/12/05 11:17:24;;;;;;;4.50;4.07;;;5.60;99.90;;;;;;5093130;28;20182;-59
2021/12/05 11:19:57;;;;;;;3.63;2.00;;;5.80;99.90;;;;;;5093328;28;20199;-59
2021/12/05 11:22:32;;;;;;;3.00;1.52;;;6.00;99.90;;;;;;5093221;28;20536;-60
2021/12/05 11:25:04;;;;;;;3.35;1.60;;;6.10;99.90;;;;;;5092530;28;20272;-60
2021/12/05 11:27:38;;;;;;;2.22;1.80;;;6.20;99.90;;;;;;5093100;28;20643;-60
2021/12/05 11:30:09;;;;;;;3.15;1.90;;;6.30;99.90;;;;;;5093144;28;20180;-60
2021/12/05 11:32:38;;;;;;;2.95;1.52;;;6.40;99.90;;;;;;5092923;28;20200;-60
2021/12/05 11:35:18;;;;;;;2.30;1.60;;;6.40;99.90;;;;;;5093099;28;20207;-60
2021/12/05 11:37:54;;;;;;;2.40;2.20;;;6.50;99.90;;;;;;5092999;28;20233;-60
2021/12/05 11:40:21;;;;;;;4.43;2.50;;;6.60;99.90;;;;;;5092979;28;20631;-61
2021/12/05 11:43:02;;;;;;;5.90;3.67;;;6.60;99.90;;;;;;5092810;28;20571;-60
2021/12/05 11:45:30;;;;;;;3.45;1.90;;;7.10;99.90;;;;;;5092659;28;20238;-60
2021/12/05 11:47:57;;;;;;;6.05;2.13;;;7.20;99.90;;;;;;5091883;28;20176;-58
2021/12/05 11:50:37;;;;;;;1.95;1.63;;;7.30;99.90;;;;;;5093240;28;20206;-58
2021/12/05 11:53:03;;;;;;;4.10;1.95;;;7.30;99.90;;;;;;5092570;28;20180;-58
2021/12/05 11:55:32;;;;;;;3.72;1.85;;;7.20;99.90;;;;;;5092191;28;20228;-57
2021/12/05 11:57:59;;;;;;;7.78;2.30;;;7.10;99.90;;;;;;5091397;28;20180;-57
2021/12/05 12:00:27;;;;;;;5.32;3.20;;;7.00;99.90;;;;;;5092137;28;20538;-58
2021/12/05 12:02:53;;;;;;;11.32;6.40;;;7.00;99.90;;;;;;5093629;28;20176;-60
2021/12/05 12:05:24;;;;;;;13.40;9.38;;;6.90;99.90;;;;;;5092434;28;20223;-61
2021/12/05 12:07:57;;;;;;;8.88;5.60;;;7.00;99.90;;;;;;5092234;28;20657;-59
2021/12/05 12:10:28;;;;;;;5.40;3.97;;;7.00;99.90;;;;;;5091712;28;20245;-60
2021/12/05 12:12:58;;;;;;;6.32;3.58;;;7.00;99.90;;;;;;5092330;28;20207;-60
2021/12/05 12:15:27;;;;;;;6.45;2.95;;;7.00;99.90;;;;;;5092017;28;20324;-60
2021/12/05 12:17:57;;;;;;;4.18;2.75;;;7.10;99.90;;;;;;5090997;28;20208;-60
2021/12/05 12:20:25;;;;;;;4.93;2.47;;;7.10;99.90;;;;;;5091962;28;20180;-60
2021/12/05 12:22:53;;;;;;;2.78;2.10;;;7.20;99.90;;;;;;5091941;28;20207;-59
2021/12/05 12:25:23;;;;;;;3.35;1.60;;;7.30;99.90;;;;;;5092003;28;20239;-60
2021/12/05 12:27:49;;;;;;;2.53;1.75;;;7.30;99.90;;;;;;5092116;28;20266;-60
2021/12/05 12:30:24;;;;;;;3.88;1.75;;;7.30;99.90;;;;;;5091659;28;20263;-59
2021/12/05 12:32:54;;;;;;;2.70;1.58;;;7.30;99.90;;;;;;5071895;28;20176;-59
2021/12/05 12:35:25;;;;;;;2.05;1.60;;;7.20;99.90;;;;;;5071940;28;20183;-59
2021/12/05 12:38:07;;;;;;;2.28;1.45;;;7.20;99.90;;;;;;5071852;28;20222;-59
2021/12/05 12:40:48;;;;;;;2.42;1.85;;;7.00;99.90;;;;;;5071737;28;20180;-59
2021/12/05 12:43:44;;;;;;;3.92;2.28;;;6.90;99.90;;;;;;5071804;28;20168;-59
2021/12/05 12:46:49;;;;;;;4.43;2.42;;;6.80;99.90;;;;;;5106629;28;20198;-59
2021/12/05 12:49:14;;;;;;;2.78;2.10;;;6.70;99.90;;;;;;5112343;28;20178;-60
2021/12/05 12:52:02;;;;;;;12.88;4.53;;;6.70;99.90;;;;;;5112043;28;20179;-60
2021/12/05 12:54:49;;;;;;;7.45;3.25;;;6.70;99.90;;;;;;5111821;28;20186;-60
2021/12/05 12:57:16;;;;;;;3.83;2.28;;;6.70;99.90;;;;;;5104222;28;20191;-59
2021/12/05 13:00:03;;;;;;;5.43;2.03;;;6.70;99.90;;;;;;5091333;28;20176;-59
2021/12/05 13:07:21;;;;;;;5.35;2.20;;;6.70;99.90;;;;;;5091782;28;20215;-59
2021/12/05 13:11:16;;;;;;;1.05;1.05;;;6.70;99.90;;;;;;5095547;28;20662;-58
2021/12/05 13:13:44;;;;;;;2.75;1.42;;;6.80;99.90;;;;;;5103643;28;20262;-59
2021/12/05 13:16:26;;;;;;;2.53;1.55;;;7.00;99.90;;;;;;5112197;28;20175;-59
2021/12/05 13:19:22;;;;;;;2.63;1.83;;;7.10;99.90;;;;;;5071647;28;20264;-58
2021/12/05 13:21:50;;;;;;;2.88;1.60;;;7.20;99.90;;;;;;5071350;28;20259;-58
2021/12/05 13:24:32;;;;;;;2.65;1.58;;;7.20;99.90;;;;;;5077287;28;20225;-58
2021/12/05 13:27:09;;;;;;;1.95;1.60;;;7.30;99.90;;;;;;5095732;28;20584;-58
2021/12/05 13:29:38;;;;;;;3.47;1.70;;;7.30;99.90;;;;;;5095440;28;20183;-58
2021/12/05 13:32:13;;;;;;;3.58;1.17;;;7.20;99.90;;;;;;5095504;28;20172;-58
2021/12/05 13:34:41;;;;;;;2.03;1.20;;;6.90;99.90;;;;;;5095295;28;20233;-58
2021/12/05 13:37:08;;;;;;;1.80;1.13;;;6.80;99.90;;;;;;5095286;28;20196;-59
2021/12/05 13:39:53;;;;;;;2.03;1.23;;;6.70;99.90;;;;;;5095214;28;20187;-58
2021/12/05 13:42:26;;;;;;;1.42;1.10;;;6.70;99.90;;;;;;5094104;28;20179;-58
2021/12/05 13:45:06;;;;;;;5.40;2.65;;;6.60;99.90;;;;;;5095614;28;20214;-58
2021/12/05 13:47:46;;;;;;;4.85;2.10;;;6.60;99.90;;;;;;5095638;28;20673;-58
2021/12/05 13:50:17;;;;;;;3.50;1.88;;;6.50;99.90;;;;;;5095034;28;20184;-58
2021/12/05 13:53:03;;;;;;;4.38;1.80;;;6.50;99.90;;;;;;5094905;28;20218;-58
2021/12/05 13:55:49;;;;;;;3.75;2.05;;;6.50;99.90;;;;;;5080515;28;20226;-58
2021/12/05 13:58:34;;;;;;;3.72;2.22;;;6.50;99.90;;;;;;5095018;28;20271;-58
2021/12/05 14:01:31;;;;;;;2.72;1.70;;;6.60;99.90;;;;;;5094926;28;20168;-58
2021/12/05 14:04:16;;;;;;;2.28;1.88;;;6.60;99.90;;;;;;5094888;28;20212;-58
2021/12/05 14:06:52;;;;;;;3.95;2.67;;;6.50;99.90;;;;;;5094727;28;20179;-58
2021/12/05 14:09:18;;;;;;;2.10;1.50;;;6.50;99.90;;;;;;5094795;28;20176;-58
2021/12/05 14:11:46;;;;;;;3.60;1.58;;;6.40;99.90;;;;;;5094661;28;20504;-58
2021/12/05 14:14:12;;;;;;;1.60;1.50;;;6.30;99.90;;;;;;5094642;28;20180;-58
2021/12/05 14:16:41;;;;;;;1.85;1.55;;;6.20;99.90;;;;;;5094433;28;20176;-59
2021/12/05 14:19:10;;;;;;;2.53;1.58;;;6.20;99.90;;;;;;5094729;28;20615;-58
2021/12/05 14:21:44;;;;;;;2.72;2.20;;;6.20;99.90;;;;;;5093282;28;20177;-58
2021/12/05 14:24:11;;;;;;;12.18;7.38;;;6.20;99.90;;;;;;5094259;28;20271;-58
2021/12/05 14:26:39;;;;;;;9.98;6.15;;;6.10;99.90;;;;;;5093869;28;20176;-58
2021/12/05 14:29:12;;;;;;;5.70;4.80;;;6.00;99.90;;;;;;5093987;28;20184;-58
2021/12/05 14:31:44;;;;;;;4.70;3.75;;;6.00;99.90;;;;;;5094112;28;20515;-58
2021/12/05 14:34:11;;;;;;;5.93;3.65;;;6.00;99.90;;;;;;5093796;28;20176;-58
2021/12/05 14:36:54;;;;;;;3.05;2.50;;;6.00;99.90;;;;;;5094275;28;20176;-58
2021/12/05 14:39:46;;;;;;;4.03;2.97;;;5.90;99.90;;;;;;5093306;28;20211;-58
2021/12/05 14:42:25;;;;;;;8.95;4.78;;;5.90;99.90;;;;;;5093404;28;20188;-58
2021/12/05 14:44:53;;;;;;;26.42;11.32;;;5.90;99.90;;;;;;5093682;28;20223;-58
2021/12/05 14:47:25;;;;;;;33.67;12.95;;;5.90;99.90;;;;;;5092954;28;20242;-59
2021/12/05 14:49:54;;;;;;;24.90;10.80;;;5.80;99.90;;;;;;5093878;28;20168;-59
2021/12/05 14:52:23;;;;;;;15.85;7.55;;;5.80;99.90;;;;;;5093784;28;20853;-60
2021/12/05 14:54:49;;;;;;;10.63;6.13;;;5.70;99.90;;;;;;5093532;28;20702;-60
2021/12/05 14:57:28;;;;;;;9.15;5.10;;;5.70;99.90;;;;;;5093924;28;20184;-61
2021/12/05 15:00:06;;;;;;;8.60;5.15;;;5.70;99.90;;;;;;5092414;28;20214;-60
2021/12/05 15:02:32;;;;;;;12.27;6.85;;;5.60;99.90;;;;;;5093550;28;20172;-62
2021/12/05 15:04:57;;;;;;;11.73;6.53;;;5.60;99.90;;;;;;5093567;28;20223;-60
2021/12/05 15:07:25;;;;;;;9.70;5.32;;;5.60;99.90;;;;;;5093445;28;20288;-60
2021/12/05 15:09:57;;;;;;;9.88;5.40;;;5.60;99.90;;;;;;5092372;28;20191;-59
2021/12/05 15:12:26;;;;;;;9.38;5.18;;;5.60;99.90;;;;;;5093654;28;20176;-60
2021/12/05 15:14:57;;;;;;;7.10;3.60;;;5.50;99.90;;;;;;5093461;28;20263;-59
2021/12/05 15:17:25;;;;;;;3.42;2.20;;;5.50;99.90;;;;;;5093483;28;20171;-59
2021/12/05 15:19:53;;;;;;;3.13;2.10;;;5.40;99.90;;;;;;5093168;28;20202;-59
2021/12/05 15:22:20;;;;;;;5.07;2.65;;;5.30;99.90;;;;;;5093224;28;20273;-60
2021/12/05 15:24:52;;;;;;;13.40;5.60;;;5.30;99.90;;;;;;5093255;28;20208;-59
2021/12/05 15:27:20;;;;;;;14.60;3.92;;;5.20;99.90;;;;;;5093360;28;20221;-59
2021/12/05 15:29:52;;;;;;;5.55;2.85;;;5.20;99.90;;;;;;5093291;28;20183;-60
2021/12/05 15:32:21;;;;;;;4.00;2.50;;;5.10;99.90;;;;;;5093295;28;20172;-59
2021/12/05 15:34:50;;;;;;;3.70;2.10;;;5.10;99.90;;;;;;5093116;28;20183;-59
2021/12/05 15:37:15;;;;;;;3.30;2.00;;;5.00;99.90;;;;;;5093095;28;20620;-59
2021/12/05 15:39:44;;;;;;;2.67;1.67;;;5.00;99.90;;;;;;5092976;28;20275;-59
2021/12/05 15:42:22;;;;;;;5.15;3.22;;;4.90;99.90;;;;;;5092772;28;20183;-59
2021/12/05 15:44:50;;;;;;;7.53;4.65;;;4.90;99.90;;;;;;5092218;28;20265;-59
2021/12/05 15:47:19;;;;;;;5.72;4.20;;;4.80;99.90;;;;;;5092905;28;20168;-59
2021/12/05 15:49:50;;;;;;;4.25;2.92;;;4.70;99.90;;;;;;5092828;28;20190;-59
2021/12/05 15:52:19;;;;;;;2.50;2.15;;;4.70;99.90;;;;;;5092703;28;20187;-59
2021/12/05 15:54:46;;;;;;;2.03;1.65;;;4.60;99.90;;;;;;5092525;28;21017;-59
2021/12/05 15:57:24;;;;;;;4.35;1.58;;;4.60;99.90;;;;;;5092645;28;20267;-59
2021/12/05 15:59:50;;;;;;;6.25;2.17;;;4.50;99.90;;;;;;5092511;28;20176;-59
2021/12/05 16:02:18;;;;;;;2.20;1.80;;;4.50;99.90;;;;;;5092617;28;20183;-59
2021/12/05 16:04:45;;;;;;;2.90;1.63;;;4.40;99.90;;;;;;5092388;28;20208;-59
2021/12/05 16:07:11;;;;;;;1.73;1.50;;;4.40;99.90;;;;;;5092366;28;20176;-58
2021/12/05 16:09:40;;;;;;;3.03;1.92;;;4.30;99.90;;;;;;5092283;28;20267;-58
2021/12/05 16:12:13;;;;;;;7.38;2.80;;;4.30;99.90;;;;;;5092488;28;20563;-59
2021/12/05 16:14:42;;;;;;;6.20;3.15;;;4.30;99.90;;;;;;5091991;28;20176;-59
2021/12/05 16:17:27;;;;;;;6.03;3.30;;;4.20;99.90;;;;;;5092245;28;20176;-58
2021/12/05 16:20:07;;;;;;;4.00;2.90;;;4.20;99.90;;;;;;5091923;28;20651;-59
2021/12/05 16:22:50;;;;;;;3.85;2.58;;;4.10;99.90;;;;;;5091977;28;20184;-59
2021/12/05 16:25:19;;;;;;;4.70;2.72;;;4.20;99.90;;;;;;5092188;28;20210;-59
2021/12/05 16:27:55;;;;;;;4.72;3.30;;;4.10;99.90;;;;;;5092144;28;20176;-59
2021/12/05 16:30:26;;;;;;;5.53;3.17;;;4.10;99.90;;;;;;5092214;28;20186;-59
2021/12/05 16:32:53;;;;;;;6.15;4.18;;;4.10;99.90;;;;;;5091988;28;20180;-59
2021/12/05 16:35:34;;;;;;;9.93;5.45;;;4.00;99.90;;;;;;5092048;28;20172;-59
2021/12/05 16:38:02;;;;;;;13.18;6.18;;;3.90;99.90;;;;;;5092022;28;20662;-59
2021/12/05 16:40:56;;;;;;;9.45;5.63;;;3.90;99.90;;;;;;5091950;28;20161;-60
2021/12/05 16:43:22;;;;;;;9.75;4.68;;;3.80;99.90;;;;;;5091673;28;20168;-59
2021/12/05 16:45:47;;;;;;;8.70;4.68;;;3.80;99.90;;;;;;5091667;28;20269;-59
2021/12/05 16:48:17;;;;;;;7.68;4.22;;;3.80;99.90;;;;;;5091669;28;20628;-58
2021/12/05 16:50:43;;;;;;;10.25;5.47;;;3.80;99.90;;;;;;5090036;28;20180;-58
2021/12/05 16:53:11;;;;;;;9.20;5.80;;;3.70;99.90;;;;;;5091210;28;20182;-59
2021/12/05 16:55:41;;;;;;;10.18;5.60;;;3.70;99.90;;;;;;5093475;28;20255;-59
2021/12/05 16:58:14;;;;;;;8.38;4.97;;;3.60;99.90;;;;;;5116266;28;20176;-60
2021/12/05 17:00:42;;;;;;;6.47;3.97;;;3.60;99.90;;;;;;5116440;28;20214;-58
2021/12/05 17:03:09;;;;;;;6.30;3.88;;;3.50;99.90;;;;;;5110310;28;20656;-58
2021/12/05 17:05:44;;;;;;;7.70;4.85;;;3.50;99.90;;;;;;5116114;28;20525;-58
2021/12/05 17:08:20;;;;;;;11.75;4.75;;;3.40;99.90;;;;;;5116002;28;20181;-60
2021/12/05 17:10:56;;;;;;;8.00;4.85;;;3.30;99.90;;;;;;5098484;28;20188;-59
2021/12/05 17:13:35;;;;;;;8.73;4.78;;;3.30;99.90;;;;;;5095677;28;20635;-59
2021/12/05 17:16:21;;;;;;;7.38;4.85;;;3.20;99.90;;;;;;5095711;28;20194;-58
2021/12/05 17:19:06;;;;;;;17.13;7.35;;;3.20;99.90;;;;;;5094514;28;20179;-58
2021/12/05 17:21:36;;;;;;;16.85;8.57;;;3.10;99.90;;;;;;5095471;28;20179;-60
2021/12/05 17:24:12;;;;;;;23.30;9.80;;;3.10;99.90;;;;;;5095702;28;20199;-60
2021/12/05 17:26:42;;;;;;;17.85;8.52;;;3.10;99.90;;;;;;5095273;28;20175;-60
2021/12/05 17:29:08;;;;;;;12.90;6.72;;;3.10;99.90;;;;;;5095431;28;20214;-59
2021/12/05 17:31:42;;;;;;;9.48;5.57;;;3.10;99.90;;;;;;5094841;28;20184;-60
2021/12/05 17:34:30;;;;;;;8.45;5.30;;;3.10;99.90;;;;;;5093980;28;20627;-60
2021/12/05 17:37:02;;;;;;;9.98;5.68;;;3.10;99.90;;;;;;5081824;28;20647;-61
2021/12/05 17:39:32;;;;;;;9.60;5.78;;;3.10;99.90;;;;;;5095100;28;20618;-60
2021/12/05 17:42:06;;;;;;;9.05;5.43;;;3.10;99.90;;;;;;5095108;28;20251;-60
2021/12/05 17:44:32;;;;;;;8.13;4.65;;;3.10;99.90;;;;;;5094659;28;20875;-60
2021/12/05 17:47:00;;;;;;;10.98;5.95;;;3.20;99.90;;;;;;5094940;28;20172;-59
2021/12/05 17:49:29;;;;;;;11.00;6.35;;;3.20;99.90;;;;;;5094774;28;20184;-59
2021/12/05 17:51:58;;;;;;;9.57;6.20;;;3.20;99.90;;;;;;5094882;28;20251;-59
2021/12/05 17:55:16;;;;;;;8.73;5.65;;;3.20;99.90;;;;;;5096842;28;20615;-60
2021/12/05 17:57:15;;;;;;;9.88;5.65;;;3.20;99.90;;;;;;5107574;28;20202;-59
2021/12/05 18:05:41;;;;;;;10.95;6.05;;;3.20;99.90;;;;;;5115116;28;20682;-59
2021/12/05 18:08:13;;;;;;;9.02;5.45;;;3.20;99.90;;;;;;5079785;28;20183;-59
2021/12/05 18:10:42;;;;;;;11.88;7.07;;;3.20;99.90;;;;;;5098525;28;20175;-60
2021/12/05 18:13:12;;;;;;;11.73;8.25;;;3.20;99.90;;;;;;5094636;28;20652;-59
2021/12/05 18:15:46;;;;;;;54.03;24.15;;;3.20;99.90;;;;;;5094494;28;20184;-59
2021/12/05 18:18:14;;;;;;;16.13;9.88;;;3.30;99.90;;;;;;5094645;28;20625;-60
2021/12/05 18:20:40;;;;;;;14.93;9.65;;;3.50;99.90;;;;;;5094261;28;20180;-60
2021/12/05 18:23:08;;;;;;;15.10;8.82;;;3.50;99.90;;;;;;5094534;28;20214;-60
2021/12/05 18:25:35;;;;;;;12.57;8.60;;;3.50;99.90;;;;;;5093883;28;20215;-60
2021/12/05 18:28:01;;;;;;;18.73;11.00;;;3.50;99.90;;;;;;5094447;28;20543;-60